Time;durP1;ratioP1;P1;durP2;ratioP2;P2;SDS_P1;SDS_P2;PMS_P1;PMS_P2;Temp;Humidity;BMP_temperature;BMP_pressure;BME280_temperature;BME280_humidity;BME280_pressure;Samples;Min_cycle;Max_cycle;Signal;HPM_P1;HPM_P2
2023/01/19 00:00:43;;;;;;;17.55;11.38;;;;;;;-0.10;76.91;95537.16;6225731;23;20021;-75
2023/01/19 00:03:14;;;;;;;15.57;9.82;;;;;;;-0.15;77.15;95544.47;6214750;23;20028;-75
2023/01/19 00:05:43;;;;;;;16.92;11.40;;;;;;;-0.17;76.74;95543.81;6214460;23;20461;-75
2023/01/19 00:08:14;;;;;;;16.33;10.93;;;;;;;-0.20;76.93;95541.50;6213823;23;20033;-75
2023/01/19 00:10:43;;;;;;;15.35;10.95;;;;;;;-0.22;77.34;95548.53;6214819;23;20020;-75
2023/01/19 00:13:15;;;;;;;15.57;10.38;;;;;;;-0.27;77.29;95546.41;6214512;23;20342;-75
2023/01/19 00:15:42;;;;;;;18.33;11.45;;;;;;;-0.31;76.12;95544.25;6214597;23;20036;-75
2023/01/19 00:18:10;;;;;;;17.88;10.55;;;;;;;-0.37;76.33;95550.78;6213362;23;20028;-75
2023/01/19 00:20:37;;;;;;;16.25;12.02;;;;;;;-0.33;77.72;95551.28;6214691;23;20021;-75
2023/01/19 00:23:06;;;;;;;16.20;10.65;;;;;;;-0.32;76.65;95550.34;6230640;22;20017;-80
2023/01/19 00:25:34;;;;;;;14.80;10.50;;;;;;;-0.32;77.05;95558.03;6242357;23;20028;-80
2023/01/19 00:28:02;;;;;;;15.57;9.85;;;;;;;-0.34;76.27;95555.59;6220356;23;20048;-81
2023/01/19 00:30:31;;;;;;;16.08;9.65;;;;;;;-0.42;74.59;95564.00;6218598;23;20099;-80
2023/01/19 00:32:58;;;;;;;15.65;10.75;;;;;;;-0.50;74.21;95571.56;6240051;23;20122;-80
2023/01/19 00:35:27;;;;;;;16.58;11.07;;;;;;;-0.60;73.41;95564.84;6249086;23;20012;-81
2023/01/19 00:37:55;;;;;;;15.27;10.27;;;;;;;-0.67;73.53;95567.16;6247156;23;20020;-80
2023/01/19 00:40:23;;;;;;;13.02;10.35;;;;;;;-0.74;73.92;95563.53;6248441;23;20012;-80
2023/01/19 00:42:49;;;;;;;13.45;10.10;;;;;;;-0.80;73.39;95564.06;6249705;23;20482;-80
2023/01/19 00:45:18;;;;;;;13.52;10.23;;;;;;;-0.80;74.14;95576.88;6249232;23;20408;-80
2023/01/19 00:47:49;;;;;;;16.52;10.98;;;;;;;-0.80;74.72;95576.88;6246460;23;20024;-80
2023/01/19 00:50:17;;;;;;;14.07;10.55;;;;;;;-0.84;74.49;95579.69;6247198;23;20070;-80
2023/01/19 00:52:45;;;;;;;14.18;10.77;;;;;;;-0.88;74.03;95574.97;6248185;23;20372;-80
2023/01/19 00:55:14;;;;;;;13.05;9.50;;;;;;;-0.91;73.86;95573.50;6248412;23;20027;-80
2023/01/19 00:57:42;;;;;;;15.95;10.95;;;;;;;-0.91;75.68;95577.81;6248960;23;20022;-79
2023/01/19 01:00:12;;;;;;;15.55;11.48;;;;;;;-0.89;76.00;95586.97;6247862;23;20021;-80
2023/01/19 01:02:42;;;;;;;14.38;10.23;;;;;;;-0.97;74.38;95581.72;6246855;23;20043;-80
2023/01/19 01:05:12;;;;;;;15.95;10.35;;;;;;;-1.07;73.07;95578.38;6246847;23;20020;-80
2023/01/19 01:07:40;;;;;;;14.45;10.63;;;;;;;-1.15;73.17;95578.22;6246712;23;20460;-80
2023/01/19 01:10:09;;;;;;;18.75;10.75;;;;;;;-1.22;72.91;95584.81;6246416;23;20044;-80
2023/01/19 01:12:38;;;;;;;16.42;10.82;;;;;;;-1.31;72.30;95587.25;6246582;23;20020;-80
2023/01/19 01:15:07;;;;;;;16.92;10.27;;;;;;;-1.39;72.10;95587.09;6247668;23;20026;-80
2023/01/19 01:17:35;;;;;;;14.13;9.63;;;;;;;-1.48;72.05;95583.59;6246055;23;20020;-79
2023/01/19 01:20:03;;;;;;;15.52;9.80;;;;;;;-1.58;71.74;95584.50;6245765;23;20023;-80
2023/01/19 01:22:32;;;;;;;12.30;8.75;;;;;;;-1.70;71.90;95586.38;6245782;23;20066;-79
2023/01/19 01:25:00;;;;;;;17.35;10.65;;;;;;;-1.79;72.11;95587.97;6246238;23;20012;-80
2023/01/19 01:27:27;;;;;;;13.20;9.40;;;;;;;-1.81;72.97;95583.94;6246837;23;20016;-79
2023/01/19 01:29:55;;;;;;;14.45;10.48;;;;;;;-1.82;73.79;95588.22;6246286;23;20026;-80
2023/01/19 01:32:22;;;;;;;16.75;10.35;;;;;;;-1.80;74.02;95582.97;6246447;23;20038;-80
2023/01/19 01:34:50;;;;;;;15.63;9.85;;;;;;;-1.86;72.66;95589.41;6246430;23;20024;-79
2023/01/19 01:37:17;;;;;;;13.82;10.18;;;;;;;-1.91;72.60;95594.09;6246145;23;20027;-79
2023/01/19 01:39:46;;;;;;;14.95;9.85;;;;;;;-1.97;72.77;95586.94;6245658;23;20020;-80
2023/01/19 01:42:17;;;;;;;13.88;9.77;;;;;;;-1.98;72.63;95590.47;6245864;23;20027;-79
2023/01/19 01:44:50;;;;;;;15.45;9.55;;;;;;;-1.98;72.72;95598.13;6246294;23;20322;-79
2023/01/19 01:47:23;;;;;;;16.42;9.73;;;;;;;-1.96;73.03;95601.38;6246203;23;20027;-79
2023/01/19 01:49:53;;;;;;;;;;;;;;;-1.88;73.60;95598.94;6245829;23;20020;-79
2023/01/19 01:52:23;;;;;;;15.38;10.73;;;;;;;-1.79;75.91;95605.84;6245628;23;19922;-80
2023/01/19 01:54:52;;;;;;;14.60;10.20;;;;;;;-1.71;75.09;95600.88;6246067;23;20345;-80
2023/01/19 01:57:21;;;;;;;18.70;12.95;;;;;;;-1.61;75.86;95600.94;6245481;23;20016;-79
2023/01/19 01:59:50;;;;;;;19.23;13.40;;;;;;;-1.51;77.50;95606.03;6245368;23;20128;-79
2023/01/19 02:05:09;;;;;;;15.10;11.80;;;;;;;-1.46;74.27;95607.28;6245525;23;20016;-79
2023/01/19 02:13:21;;;;;;;16.20;12.00;;;;;;;-1.39;76.72;95599.09;6261289;22;20052;-79
2023/01/19 02:15:51;;;;;;;17.80;12.20;;;;;;;-1.35;77.54;95610.69;6273351;22;20051;-79
2023/01/19 02:18:20;;;;;;;15.27;11.30;;;;;;;-1.38;76.19;95609.16;6268744;23;20020;-80
2023/01/19 02:20:56;;;;;;;14.23;9.57;;;;;;;-1.48;73.32;95609.16;6248172;23;20464;-80
2023/01/19 02:23:42;;;;;;;14.07;9.77;;;;;;;-1.62;72.51;95606.97;6246097;23;20425;-80
2023/01/19 02:26:14;;;;;;;18.77;10.50;;;;;;;-1.76;72.70;95615.81;6246058;23;20475;-79
2023/01/19 02:28:44;;;;;;;15.43;9.98;;;;;;;-1.87;72.81;95618.47;6251368;23;20022;-80
2023/01/19 02:31:13;;;;;;;15.07;9.77;;;;;;;-1.98;72.91;95619.38;6250842;23;20024;-81
2023/01/19 02:33:41;;;;;;;15.35;10.57;;;;;;;-2.09;72.96;95627.94;6248929;23;20464;-80
2023/01/19 02:36:12;;;;;;;14.80;10.65;;;;;;;-2.17;73.12;95632.84;6246401;23;20026;-80
2023/01/19 02:38:43;;;;;;;16.73;11.52;;;;;;;-2.19;74.68;95634.72;6244976;23;20016;-80
2023/01/19 02:41:15;;;;;;;15.27;10.75;;;;;;;-2.18;73.80;95628.69;6245435;23;20047;-79
2023/01/19 02:43:44;;;;;;;16.60;11.03;;;;;;;-2.26;73.34;95625.97;6245410;23;20023;-79
2023/01/19 02:46:14;;;;;;;13.85;9.90;;;;;;;-2.33;73.29;95627.41;6245738;23;20226;-80
2023/01/19 02:48:42;;;;;;;14.55;10.02;;;;;;;-2.39;73.27;95625.34;6244950;23;20074;-80
2023/01/19 02:51:14;;;;;;;18.80;10.73;;;;;;;-2.45;73.07;95630.97;6244474;23;20043;-80
2023/01/19 02:54:13;;;;;;;15.55;10.38;;;;;;;-2.54;73.10;95623.09;6245149;23;20074;-80
2023/01/19 02:57:00;;;;;;;16.17;10.57;;;;;;;-2.58;72.94;95626.88;6221201;23;20352;-80
2023/01/19 02:59:43;;;;;;;15.93;10.55;;;;;;;-2.61;73.39;95632.19;6245626;23;20019;-79
2023/01/19 03:02:21;;;;;;;15.57;10.75;;;;;;;-2.60;73.64;95636.41;6245697;23;20023;-80
2023/01/19 03:04:59;;;;;;;16.55;11.20;;;;;;;-2.63;73.31;95631.53;6245363;23;20039;-80
2023/01/19 03:07:40;;;;;;;18.65;11.45;;;;;;;-2.68;73.41;95631.09;6245899;23;20099;-79
2023/01/19 03:10:17;;;;;;;15.73;11.35;;;;;;;-2.72;73.38;95633.06;6244724;23;20107;-79
2023/01/19 03:12:50;;;;;;;16.75;10.95;;;;;;;-2.78;73.62;95631.00;6245499;23;20024;-79
2023/01/19 03:15:22;;;;;;;17.52;10.60;;;;;;;-2.80;73.29;95634.63;6246007;23;20444;-79
2023/01/19 03:17:52;;;;;;;18.25;11.48;;;;;;;-2.84;73.21;95635.78;6244390;23;20016;-79
2023/01/19 03:20:24;;;;;;;17.58;10.68;;;;;;;-2.87;73.28;95638.59;6245734;23;20107;-79
2023/01/19 03:22:55;;;;;;;15.75;11.18;;;;;;;-2.93;73.16;95632.22;6255220;23;20040;-81
2023/01/19 03:25:25;;;;;;;18.60;10.52;;;;;;;-2.97;73.10;95641.91;6270417;23;20019;-80
2023/01/19 03:27:57;;;;;;;17.10;11.18;;;;;;;-3.00;73.10;95644.66;6259045;23;20024;-79
2023/01/19 03:30:28;;;;;;;16.97;11.43;;;;;;;-3.06;72.97;95641.78;6247186;23;20191;-80
2023/01/19 03:33:01;;;;;;;15.82;11.23;;;;;;;-3.09;73.26;95642.06;6245672;23;20249;-80
2023/01/19 03:35:34;;;;;;;14.45;9.68;;;;;;;-3.15;73.17;95646.72;6245463;23;20016;-79
2023/01/19 03:38:07;;;;;;;15.23;10.68;;;;;;;-3.14;73.70;95647.53;6244256;23;20024;-79
2023/01/19 03:40:36;;;;;;;15.00;10.45;;;;;;;-3.11;73.58;95650.63;6245104;23;20020;-81
2023/01/19 03:43:05;;;;;;;17.65;10.30;;;;;;;-3.11;73.21;95657.47;6245131;23;20372;-79
2023/01/19 03:45:36;;;;;;;17.50;10.98;;;;;;;-3.07;74.37;95655.50;6245329;23;20021;-79
2023/01/19 03:48:05;;;;;;;16.13;11.57;;;;;;;-2.97;75.38;95662.31;6244720;23;20024;-79
2023/01/19 03:50:32;;;;;;;15.07;9.63;;;;;;;-2.87;74.19;95661.56;6244766;23;20024;-79
2023/01/19 03:53:02;;;;;;;16.35;9.90;;;;;;;-2.91;72.89;95659.28;6245117;23;20055;-79
2023/01/19 03:55:30;;;;;;;14.00;9.63;;;;;;;-2.95;72.63;95655.34;6244997;23;20048;-79
2023/01/19 03:57:59;;;;;;;15.80;10.23;;;;;;;-2.96;73.35;95658.00;6243883;23;20024;-79
2023/01/19 04:00:26;;;;;;;16.85;11.70;;;;;;;-2.93;74.07;95657.75;6244939;23;20026;-79
2023/01/19 04:02:54;;;;;;;15.40;10.35;;;;;;;-2.93;73.21;95648.38;6246840;23;20104;-79
2023/01/19 04:05:22;;;;;;;11.93;8.98;;;;;;;-3.01;72.93;95655.81;6247283;23;20291;-79
2023/01/19 04:07:49;;;;;;;19.55;10.50;;;;;;;-3.09;72.94;95650.50;6246547;23;20024;-79
2023/01/19 04:10:18;;;;;;;15.93;9.85;;;;;;;-3.16;72.80;95652.72;6247150;23;20056;-78
2023/01/19 04:12:45;;;;;;;15.35;10.35;;;;;;;-3.18;73.26;95659.69;6247150;23;20031;-79
2023/01/19 04:15:15;;;;;;;14.35;9.38;;;;;;;-3.14;73.61;95660.28;6247784;23;20016;-79
2023/01/19 04:17:43;;;;;;;16.13;10.82;;;;;;;-3.12;73.27;95655.88;6247124;23;20027;-79
2023/01/19 04:20:11;;;;;;;14.88;10.00;;;;;;;-3.18;72.69;95654.59;6246775;23;20460;-79
2023/01/19 04:22:39;;;;;;;15.25;9.45;;;;;;;-3.23;72.60;95659.25;6246430;23;20020;-79
2023/01/19 04:25:07;;;;;;;16.27;10.63;;;;;;;-3.28;72.81;95663.06;6246483;23;20020;-79
2023/01/19 04:27:35;;;;;;;17.33;9.63;;;;;;;-3.32;73.19;95659.97;6246972;23;20026;-80
2023/01/19 04:30:03;;;;;;;14.13;9.52;;;;;;;-3.33;73.20;95666.78;6246636;23;20016;-79
2023/01/19 04:32:32;;;;;;;13.05;9.23;;;;;;;-3.34;73.28;95664.38;6246761;23;20103;-79
2023/01/19 04:35:00;;;;;;;17.45;8.90;;;;;;;-3.35;73.73;95660.19;6246855;23;20048;-79
2023/01/19 04:37:27;;;;;;;15.75;9.02;;;;;;;-3.35;73.85;95653.34;6246468;23;20012;-79
2023/01/19 04:39:55;;;;;;;15.55;9.45;;;;;;;-3.30;73.62;95653.03;6245996;23;20024;-79
2023/01/19 04:42:22;;;;;;;14.30;9.07;;;;;;;-3.27;73.39;95654.50;6246668;23;20299;-79
2023/01/19 04:44:51;;;;;;;16.10;9.90;;;;;;;-3.28;73.50;95661.34;6246512;23;20020;-79
2023/01/19 04:47:18;;;;;;;13.90;9.60;;;;;;;-3.30;73.24;95655.56;6246556;23;20013;-79
2023/01/19 04:49:47;;;;;;;13.10;9.23;;;;;;;-3.36;72.81;95651.75;6246002;23;20448;-79
2023/01/19 04:52:15;;;;;;;13.57;9.18;;;;;;;-3.43;72.94;95655.72;6246337;23;20016;-80
2023/01/19 04:54:42;;;;;;;18.83;9.68;;;;;;;-3.48;72.95;95655.22;6247907;23;20024;-80
2023/01/19 04:57:10;;;;;;;15.43;9.02;;;;;;;-3.54;73.05;95656.53;6246934;23;20042;-79
2023/01/19 04:59:37;;;;;;;15.32;9.35;;;;;;;-3.56;73.38;95660.13;6245768;23;20016;-80
2023/01/19 05:02:05;;;;;;;12.18;8.68;;;;;;;-3.58;73.57;95672.19;6246333;23;20020;-78
2023/01/19 05:04:32;;;;;;;17.02;8.90;;;;;;;-3.58;73.28;95667.88;6246808;23;20024;-79
2023/01/19 05:07:01;;;;;;;12.90;9.25;;;;;;;-3.62;73.11;95668.25;6246491;23;20051;-79
2023/01/19 05:09:29;;;;;;;14.57;8.10;;;;;;;-3.68;73.04;95673.81;6245402;23;20492;-80
2023/01/19 05:11:57;;;;;;;15.55;8.57;;;;;;;-3.72;73.71;95680.88;6246778;23;20020;-80
2023/01/19 05:14:24;;;;;;;14.15;8.43;;;;;;;-3.70;73.96;95678.22;6246100;23;20024;-79
2023/01/19 05:16:52;;;;;;;14.70;7.80;;;;;;;-3.67;74.06;95676.25;6246687;23;20020;-79
2023/01/19 05:19:20;;;;;;;14.02;8.75;;;;;;;-3.61;73.73;95683.44;6247112;23;20089;-80
2023/01/19 05:21:47;;;;;;;14.90;8.18;;;;;;;-3.57;73.59;95689.09;6247308;23;20339;-79
2023/01/19 05:24:17;;;;;;;20.55;8.85;;;;;;;-3.58;73.25;95687.47;6246276;23;20020;-80
2023/01/19 05:26:44;;;;;;;13.45;8.43;;;;;;;-3.60;73.22;95689.34;6246524;23;20372;-79
2023/01/19 05:29:12;;;;;;;12.13;8.65;;;;;;;-3.61;73.12;95688.53;6245830;23;20024;-79
2023/01/19 05:31:40;;;;;;;13.48;7.90;;;;;;;-3.63;73.21;95675.09;6246786;23;20058;-80
2023/01/19 05:34:10;;;;;;;11.07;7.38;;;;;;;-3.65;72.90;95683.75;6246979;23;20024;-80
2023/01/19 05:36:38;;;;;;;14.10;8.30;;;;;;;-3.70;72.49;95690.94;6246514;23;20456;-79
2023/01/19 05:39:06;;;;;;;11.60;7.63;;;;;;;-3.71;74.10;95691.88;6245569;23;20020;-79
2023/01/19 05:41:35;;;;;;;11.52;7.95;;;;;;;-3.65;75.16;95691.41;6246607;23;20504;-79
2023/01/19 05:44:03;;;;;;;12.90;7.72;;;;;;;-3.57;75.56;95701.84;6246384;23;20023;-79
2023/01/19 05:46:31;;;;;;;15.25;9.50;;;;;;;-3.48;75.75;95701.13;6247180;23;20352;-80
2023/01/19 05:49:00;;;;;;;16.20;8.27;;;;;;;-3.44;74.42;95702.50;6253333;23;20509;-80
2023/01/19 05:51:33;;;;;;;15.43;8.10;;;;;;;-3.50;73.43;95705.53;6253849;23;20024;-81
2023/01/19 05:54:01;;;;;;;13.40;8.10;;;;;;;-3.56;73.61;95706.81;6250880;23;20031;-80
2023/01/19 05:56:29;;;;;;;11.95;8.40;;;;;;;-3.56;74.50;95706.81;6247525;23;20066;-81
2023/01/19 05:59:00;;;;;;;16.33;8.25;;;;;;;-3.50;74.93;95705.53;6266214;22;20014;-80
2023/01/19 06:01:28;;;;;;;12.40;8.10;;;;;;;-3.44;74.19;95710.16;6271891;23;20013;-80
2023/01/19 06:03:57;;;;;;;10.15;7.22;;;;;;;-3.44;73.28;95712.72;6266387;22;20111;-81
2023/01/19 06:06:24;;;;;;;11.35;7.60;;;;;;;-3.43;73.61;95711.81;6248731;23;20096;-80
2023/01/19 06:08:52;;;;;;;11.02;7.25;;;;;;;-3.39;74.57;95708.09;6247602;23;20016;-80
2023/01/19 06:11:20;;;;;;;12.20;8.10;;;;;;;-3.32;75.11;95711.78;6254686;23;20058;-81
2023/01/19 06:13:48;;;;;;;11.52;7.82;;;;;;;-3.26;74.24;95717.31;6253189;23;20027;-80
2023/01/19 06:16:25;;;;;;;13.98;10.27;;;;;;;-3.28;73.09;95719.19;6259578;23;20020;-82
2023/01/19 06:18:54;;;;;;;14.27;8.35;;;;;;;-3.31;73.37;95715.94;6258155;23;20012;-81
2023/01/19 06:21:22;;;;;;;13.57;8.77;;;;;;;-3.32;73.18;95721.97;6251390;23;20032;-81
2023/01/19 06:23:50;;;;;;;13.20;8.18;;;;;;;-3.29;72.83;95715.03;6223703;22;20104;-75
2023/01/19 06:26:17;;;;;;;16.00;8.82;;;;;;;-3.29;72.96;95715.03;6215508;23;20052;-74
2023/01/19 06:28:45;;;;;;;14.93;8.80;;;;;;;-3.26;73.07;95717.31;6213890;23;20021;-76
2023/01/19 06:31:12;;;;;;;16.98;9.48;;;;;;;-3.20;73.27;95721.97;6215216;23;20067;-75
2023/01/19 06:33:41;;;;;;;15.95;9.60;;;;;;;-3.14;73.18;95716.41;6238001;23;20410;-75
2023/01/19 06:36:09;;;;;;;16.85;9.32;;;;;;;-3.07;73.60;95714.97;6243969;23;20428;-74
2023/01/19 06:38:37;;;;;;;17.88;10.73;;;;;;;-2.99;73.75;95717.75;6242430;23;20027;-75
2023/01/19 06:41:04;;;;;;;15.25;9.75;;;;;;;-2.95;73.88;95726.00;6243431;23;20024;-75
2023/01/19 06:43:32;;;;;;;19.25;9.88;;;;;;;-2.91;74.52;95728.19;6243410;23;20031;-75
2023/01/19 06:46:00;;;;;;;22.45;11.05;;;;;;;-2.83;74.37;95729.31;6242930;23;20024;-75
2023/01/19 06:48:29;;;;;;;16.65;10.65;;;;;;;-2.79;75.15;95731.50;6242180;23;20020;-75
2023/01/19 06:50:58;;;;;;;17.23;9.57;;;;;;;-2.81;74.07;95727.44;6243840;23;20052;-75
2023/01/19 06:53:28;;;;;;;15.30;9.52;;;;;;;-2.95;72.71;95728.53;6245528;23;20098;-75
2023/01/19 06:55:58;;;;;;;18.08;10.35;;;;;;;-3.07;72.50;95737.13;6245618;23;20024;-74
2023/01/19 06:58:26;;;;;;;14.38;9.20;;;;;;;-3.17;72.71;95734.47;6244455;23;20016;-75
2023/01/19 07:00:55;;;;;;;18.55;9.63;;;;;;;-3.21;73.13;95745.88;6245464;23;20024;-75
2023/01/19 07:03:23;;;;;;;17.85;10.75;;;;;;;-3.24;72.93;95753.72;6245619;23;20026;-75
2023/01/19 07:05:51;;;;;;;19.33;9.40;;;;;;;-3.27;72.91;95753.97;6245537;23;20020;-75
2023/01/19 07:08:20;;;;;;;16.08;9.50;;;;;;;-3.31;72.52;95748.28;6244013;23;20024;-75
2023/01/19 07:10:48;;;;;;;13.20;9.48;;;;;;;-3.37;72.47;95747.03;6244991;23;20490;-75
2023/01/19 07:13:37;;;;;;;16.60;9.40;;;;;;;-3.38;72.66;95755.59;6245002;23;20047;-75
2023/01/19 07:16:05;;;;;;;13.00;8.52;;;;;;;-3.35;72.99;95755.34;6245221;23;20020;-75
2023/01/19 07:18:34;;;;;;;19.20;9.52;;;;;;;-3.22;73.52;95769.72;6243865;23;20023;-75
2023/01/19 07:21:02;;;;;;;18.50;10.23;;;;;;;-3.13;73.08;95762.19;6245129;23;20020;-75
2023/01/19 07:23:31;;;;;;;16.60;9.43;;;;;;;-3.10;72.96;95763.69;6244700;23;20436;-75
2023/01/19 07:26:00;;;;;;;13.30;8.63;;;;;;;-3.06;73.05;95766.81;6245081;23;20407;-75
2023/01/19 07:28:28;;;;;;;15.10;7.97;;;;;;;-3.03;73.18;95764.84;6244160;23;20108;-75
2023/01/19 07:30:56;;;;;;;15.65;8.88;;;;;;;-2.95;74.32;95766.81;6245167;23;20055;-75
2023/01/19 07:33:24;;;;;;;13.27;8.45;;;;;;;-2.83;74.18;95767.59;6244877;23;20031;-75
2023/01/19 07:35:53;;;;;;;15.32;10.00;;;;;;;-2.78;73.54;95768.84;6244939;23;20107;-75
2023/01/19 07:38:21;;;;;;;18.38;11.50;;;;;;;-2.74;72.70;95766.88;6243901;23;20019;-75
2023/01/19 07:40:50;;;;;;;15.10;9.65;;;;;;;-2.77;71.72;95770.47;6245021;23;20099;-75
2023/01/19 07:43:18;;;;;;;16.88;10.95;;;;;;;-2.74;72.10;95771.97;6245038;23;20020;-75
2023/01/19 07:45:45;;;;;;;18.20;11.20;;;;;;;-2.76;72.05;95761.88;6244556;23;20530;-75
2023/01/19 07:48:13;;;;;;;17.08;10.45;;;;;;;-2.76;72.42;95771.28;6244534;23;20027;-74
2023/01/19 07:50:40;;;;;;;16.73;11.02;;;;;;;-2.71;73.62;95764.91;6244388;23;20035;-75
2023/01/19 07:53:10;;;;;;;24.67;12.60;;;;;;;-2.66;73.46;95768.84;6245016;23;20024;-75
2023/01/19 07:55:38;;;;;;;30.85;12.95;;;;;;;-2.62;73.44;95772.78;6245259;23;20074;-75
2023/01/19 07:58:06;;;;;;;23.67;14.30;;;;;;;-2.64;72.26;95780.53;6243965;23;20059;-75
2023/01/19 08:00:35;;;;;;;22.65;13.27;;;;;;;-2.67;72.00;95785.06;6244716;23;20099;-75
2023/01/19 08:03:04;;;;;;;25.52;14.35;;;;;;;-2.70;71.66;95786.13;6244719;23;20016;-75
2023/01/19 08:05:32;;;;;;;23.35;14.80;;;;;;;-2.73;71.47;95791.47;6244961;23;20047;-75
2023/01/19 08:08:00;;;;;;;26.33;13.38;;;;;;;-2.73;71.26;95792.28;6244314;23;20079;-75
2023/01/19 08:10:28;;;;;;;21.30;12.13;;;;;;;-2.73;71.41;95797.38;6244852;23;20031;-75
2023/01/19 08:12:57;;;;;;;22.50;12.70;;;;;;;-2.70;71.26;95796.31;6244794;23;20474;-75
2023/01/19 08:15:27;;;;;;;20.40;11.23;;;;;;;-2.67;71.02;95795.28;6244880;23;20030;-75
2023/01/19 08:17:56;;;;;;;17.70;10.50;;;;;;;-2.63;70.94;95805.13;6244626;23;20062;-74
2023/01/19 08:20:24;;;;;;;21.58;12.45;;;;;;;-2.59;70.81;95809.06;6259896;23;20044;-74
2023/01/19 08:22:58;;;;;;;22.27;13.90;;;;;;;-2.53;71.27;95810.34;6260379;23;20024;-74
2023/01/19 08:25:31;;;;;;;19.38;12.18;;;;;;;-2.44;71.85;95811.34;6246283;23;20024;-75
2023/01/19 08:27:59;;;;;;;19.05;12.02;;;;;;;-2.33;71.81;95813.88;6244594;23;20016;-75
2023/01/19 08:30:29;;;;;;;20.33;12.52;;;;;;;-2.19;71.04;95811.00;6244692;23;20024;-75
2023/01/19 08:33:02;;;;;;;20.05;12.00;;;;;;;-2.09;70.57;95811.91;6245087;23;20026;-75
2023/01/19 08:35:30;;;;;;;17.58;12.52;;;;;;;-1.99;70.46;95811.16;6245277;23;20020;-75
2023/01/19 08:38:00;;;;;;;21.30;13.15;;;;;;;-1.88;69.99;95806.81;6243793;23;20020;-75
2023/01/19 08:40:28;;;;;;;15.70;11.18;;;;;;;-1.74;69.86;95810.81;6245023;23;20066;-74
2023/01/19 08:42:59;;;;;;;24.17;13.88;;;;;;;-1.57;69.57;95817.09;6244872;23;20404;-75
2023/01/19 08:45:29;;;;;;;24.60;13.77;;;;;;;-1.50;69.56;95802.06;6245264;23;20407;-75
2023/01/19 08:47:57;;;;;;;21.85;13.98;;;;;;;-1.43;69.62;95813.41;6244728;23;20027;-75
2023/01/19 08:50:25;;;;;;;18.95;12.10;;;;;;;-1.41;70.18;95803.84;6247052;23;20083;-75
2023/01/19 08:52:55;;;;;;;18.45;11.27;;;;;;;-1.33;70.81;95800.69;6246731;23;20024;-75
2023/01/19 08:55:23;;;;;;;17.13;10.98;;;;;;;-1.18;70.55;95804.50;6246833;23;20333;-75
2023/01/19 08:57:52;;;;;;;17.42;11.80;;;;;;;-1.00;69.98;95803.91;6245826;23;20027;-75
2023/01/19 09:00:21;;;;;;;16.58;11.10;;;;;;;-0.83;71.16;95808.41;6246742;23;20020;-75
2023/01/19 09:02:50;;;;;;;20.55;12.30;;;;;;;-0.75;69.93;95810.28;6247016;23;20336;-75
2023/01/19 09:05:18;;;;;;;17.42;11.95;;;;;;;-0.76;70.10;95801.00;6246707;23;20020;-75
2023/01/19 09:07:46;;;;;;;24.85;13.95;;;;;;;-0.70;70.15;95805.56;6246066;23;20026;-75
2023/01/19 09:10:15;;;;;;;25.05;13.98;;;;;;;-0.62;69.34;95798.06;6246085;23;20076;-75
2023/01/19 09:12:43;;;;;;;20.10;13.80;;;;;;;-0.58;70.25;95804.53;6246781;23;20034;-75
2023/01/19 09:15:12;;;;;;;20.73;13.50;;;;;;;-0.48;69.40;95801.97;6246908;23;20464;-76
2023/01/19 09:17:41;;;;;;;21.75;14.18;;;;;;;-0.40;69.09;95804.69;6246212;23;20024;-75
2023/01/19 09:20:10;;;;;;;21.83;12.82;;;;;;;-0.34;68.56;95800.78;6245748;23;20039;-75
2023/01/19 09:22:38;;;;;;;22.63;13.57;;;;;;;-0.25;68.91;95800.78;6246399;23;20031;-75
2023/01/19 09:25:07;;;;;;;22.92;14.40;;;;;;;-0.13;68.64;95793.78;6246714;23;20026;-75
2023/01/19 09:27:35;;;;;;;24.48;15.13;;;;;;;0.01;68.41;95804.59;6246385;23;20488;-75
2023/01/19 09:30:04;;;;;;;21.40;12.52;;;;;;;0.10;67.34;95803.75;6245641;23;20035;-75
2023/01/19 09:32:31;;;;;;;23.02;14.50;;;;;;;0.17;68.25;95807.38;6246559;23;20099;-75
2023/01/19 09:34:59;;;;;;;19.30;12.77;;;;;;;0.21;66.90;95806.16;6246375;23;20063;-75
2023/01/19 09:37:27;;;;;;;22.73;12.95;;;;;;;0.24;66.38;95815.34;6246439;23;20414;-75
2023/01/19 09:39:55;;;;;;;20.17;13.00;;;;;;;0.31;67.46;95816.44;6245343;23;20020;-75
2023/01/19 09:42:27;;;;;;;21.95;13.30;;;;;;;0.44;67.12;95821.25;6245696;23;20476;-75
2023/01/19 09:44:54;;;;;;;20.43;13.03;;;;;;;0.59;68.60;95819.88;6246369;23;20035;-75
2023/01/19 09:47:27;;;;;;;20.92;14.43;;;;;;;0.80;69.80;95820.47;6246106;23;20051;-75
2023/01/19 09:49:58;;;;;;;22.73;14.70;;;;;;;1.01;68.73;95825.41;6245364;23;20039;-75
2023/01/19 09:52:28;;;;;;;17.60;13.20;;;;;;;1.18;67.55;95821.28;6246064;23;20031;-75
2023/01/19 09:54:57;;;;;;;17.02;10.77;;;;;;;1.28;64.81;95826.38;6246092;23;20020;-75
2023/01/19 09:57:27;;;;;;;16.40;11.15;;;;;;;1.45;66.48;95827.38;6245904;23;20016;-75
2023/01/19 09:59:58;;;;;;;16.38;10.35;;;;;;;1.85;65.13;95826.97;6245630;23;20480;-75
2023/01/19 10:02:35;;;;;;;11.40;9.27;;;;;;;2.31;61.59;95834.59;6247710;23;20051;-76
2023/01/19 10:05:05;;;;;;;13.75;9.90;;;;;;;2.58;64.24;95825.13;6247286;23;20027;-75
2023/01/19 10:07:47;;;;;;;14.38;9.55;;;;;;;2.68;62.99;95825.84;6246582;23;20024;-75
2023/01/19 10:10:20;;;;;;;14.57;9.57;;;;;;;2.63;60.45;95828.06;6245971;23;20016;-76
2023/01/19 10:13:03;;;;;;;14.73;9.98;;;;;;;2.60;59.36;95828.34;6245933;23;20479;-76
2023/01/19 10:15:40;;;;;;;11.25;7.75;;;;;;;2.76;60.60;95830.25;6245634;23;20467;-75
2023/01/19 10:18:16;;;;;;;12.25;8.13;;;;;;;2.84;59.97;95828.53;6244806;23;20020;-75
2023/01/19 10:20:48;;;;;;;11.25;8.15;;;;;;;2.85;60.68;95822.41;6245857;23;20027;-75
2023/01/19 10:23:39;;;;;;;12.18;8.20;;;;;;;2.80;58.26;95816.91;6245395;23;20020;-76
2023/01/19 10:26:13;;;;;;;12.30;7.93;;;;;;;3.11;62.07;95819.00;6245598;23;20020;-76
2023/01/19 10:28:41;;;;;;;10.77;8.13;;;;;;;4.31;60.11;95817.00;6244737;23;20056;-75
2023/01/19 10:31:09;;;;;;;14.98;7.97;;;;;;;6.30;56.02;95812.50;6245364;23;20460;-75
2023/01/19 10:33:38;;;;;;;15.95;7.80;;;;;;;8.62;49.14;95807.72;6246027;23;20024;-75
2023/01/19 10:36:15;;;;;;;12.02;7.80;;;;;;;10.43;46.28;95810.06;6244952;23;20460;-76
2023/01/19 10:38:44;;;;;;;11.13;7.40;;;;;;;11.85;42.43;95808.56;6244456;23;20090;-76
2023/01/19 10:41:17;;;;;;;10.05;7.13;;;;;;;12.12;39.68;95808.44;6244811;23;20352;-76
2023/01/19 10:43:46;;;;;;;;;;;;;;;11.13;40.42;95816.44;6245936;23;20400;-77
2023/01/19 10:46:21;;;;;;;11.13;6.93;;;;;;;9.60;44.64;95820.66;6245425;23;19965;-76
2023/01/19 10:48:50;;;;;;;8.30;6.70;;;;;;;8.35;48.02;95809.25;6244366;23;20048;-76
2023/01/19 10:51:18;;;;;;;8.27;6.47;;;;;;;7.45;50.41;95807.94;6245157;23;20381;-76
2023/01/19 10:53:57;;;;;;;8.77;7.10;;;;;;;6.74;47.92;95811.00;6245237;23;20062;-76
2023/01/19 10:56:27;;;;;;;8.02;6.18;;;;;;;6.28;53.14;95811.88;6245152;23;20081;-76
2023/01/19 10:58:55;;;;;;;9.75;6.78;;;;;;;5.98;55.13;95808.38;6244298;23;20460;-76
2023/01/19 11:01:25;;;;;;;12.27;6.10;;;;;;;5.90;54.05;95806.63;6245021;23;20052;-76
2023/01/19 11:03:55;;;;;;;10.50;6.38;;;;;;;5.85;53.28;95806.31;6245192;23;20031;-76
2023/01/19 11:06:26;;;;;;;11.10;7.05;;;;;;;5.57;53.33;95811.16;6260588;23;20024;-75
2023/01/19 11:09:10;;;;;;;11.80;6.85;;;;;;;5.25;50.74;95806.97;6257389;23;20058;-76
2023/01/19 11:11:43;;;;;;;8.82;6.75;;;;;;;5.06;55.62;95808.94;6245447;23;20099;-75
2023/01/19 11:14:13;;;;;;;10.35;6.78;;;;;;;5.00;56.41;95812.19;6245421;23;20022;-76
2023/01/19 11:16:47;;;;;;;13.80;6.50;;;;;;;4.84;55.50;95809.66;6244809;23;20452;-75
2023/01/19 11:19:21;;;;;;;8.70;6.38;;;;;;;4.67;57.17;95808.88;6244203;23;20030;-76
2023/01/19 11:21:49;;;;;;;10.60;7.30;;;;;;;4.83;54.85;95808.88;6244657;23;20020;-76
2023/01/19 11:24:18;;;;;;;9.52;6.60;;;;;;;5.63;55.66;95805.31;6244607;23;20024;-76
2023/01/19 11:26:50;;;;;;;12.30;6.25;;;;;;;6.76;50.84;95802.06;6244815;23;20163;-76
2023/01/19 11:29:22;;;;;;;8.90;6.63;;;;;;;7.17;48.35;95801.63;6244089;23;20020;-76
2023/01/19 11:31:51;;;;;;;10.90;6.20;;;;;;;6.83;48.71;95799.56;6245274;23;20054;-75
2023/01/19 11:34:25;;;;;;;7.78;5.55;;;;;;;6.26;51.12;95810.44;6244641;23;20027;-76
2023/01/19 11:36:58;;;;;;;8.23;5.32;;;;;;;5.84;53.24;95803.88;6244805;23;20024;-76
2023/01/19 11:39:29;;;;;;;8.95;5.63;;;;;;;5.49;54.94;95798.28;6243819;23;20024;-76
2023/01/19 11:42:00;;;;;;;6.90;5.13;;;;;;;5.19;55.34;95805.84;6244812;23;20020;-76
2023/01/19 11:44:32;;;;;;;7.57;5.43;;;;;;;4.97;55.22;95799.63;6244916;23;20103;-76